Time;durP1;ratioP1;P1;durP2;ratioP2;P2;SDS_P1;SDS_P2;PMS_P1;PMS_P2;Temp;Humidity;BMP_temperature;BMP_pressure;BME280_temperature;BME280_humidity;BME280_pressure;Samples;Min_cycle;Max_cycle;Signal;HPM_P1;HPM_P2
2021/08/02 00:00:58;;;;;;;24.17;20.17;;;24.90;83.80;;;;;;5118564;28;20039;-94
2021/08/02 00:03:43;;;;;;;25.48;19.02;;;24.90;83.50;;;;;;5100413;28;20064;-89
2021/08/02 00:06:12;;;;;;;29.58;22.50;;;24.90;83.60;;;;;;5077714;28;20040;-90
2021/08/02 00:08:38;;;;;;;24.58;21.00;;;24.90;83.60;;;;;;5094542;28;20063;-91
2021/08/02 00:11:04;;;;;;;25.38;20.92;;;24.90;83.80;;;;;;5113211;28;20038;-92
2021/08/02 00:13:33;;;;;;;25.75;21.80;;;24.90;84.00;;;;;;5114972;28;20040;-90
2021/08/02 00:16:03;;;;;;;25.80;20.67;;;24.90;84.30;;;;;;5118584;28;20031;-89
2021/08/02 00:18:30;;;;;;;26.27;21.80;;;24.80;84.70;;;;;;5099326;28;20031;-93
2021/08/02 00:21:00;;;;;;;27.30;20.30;;;24.80;84.90;;;;;;5098074;28;20031;-91
2021/08/02 00:23:26;;;;;;;25.52;22.05;;;24.80;85.00;;;;;;5078522;28;20036;-91
2021/08/02 00:25:55;;;;;;;24.20;20.92;;;24.80;85.10;;;;;;5097101;28;20032;-93
2021/08/02 00:28:22;;;;;;;21.10;18.90;;;24.80;85.10;;;;;;5116896;28;20039;-92
2021/08/02 00:30:49;;;;;;;25.42;19.02;;;24.80;85.30;;;;;;5116348;28;20040;-91
2021/08/02 00:33:15;;;;;;;24.65;19.10;;;24.80;85.40;;;;;;5116954;28;20032;-89
2021/08/02 00:36:09;;;;;;;24.60;18.95;;;24.80;85.60;;;;;;5117127;28;20046;-92
2021/08/02 00:38:43;;;;;;;20.98;17.73;;;24.80;85.70;;;;;;5106927;28;20047;-91
2021/08/02 00:41:29;;;;;;;23.33;20.63;;;24.80;85.80;;;;;;5116409;28;20067;-91
2021/08/02 00:44:30;;;;;;;24.73;19.75;;;24.80;86.50;;;;;;5116667;28;20036;-90
2021/08/02 00:47:03;;;;;;;20.55;18.40;;;24.80;85.70;;;;;;5116336;28;20043;-91
2021/08/02 00:49:30;;;;;;;25.63;19.67;;;24.80;85.70;;;;;;5098183;28;20066;-89
2021/08/02 00:51:57;;;;;;;22.30;20.00;;;24.80;85.50;;;;;;5105680;28;20046;-92
2021/08/02 00:54:26;;;;;;;21.95;19.60;;;24.80;85.60;;;;;;5097470;28;20495;-91
2021/08/02 00:56:57;;;;;;;22.25;19.02;;;24.80;85.70;;;;;;5116396;28;20108;-89
2021/08/02 00:59:29;;;;;;;23.50;19.60;;;24.80;85.80;;;;;;5116149;28;20562;-90
2021/08/02 01:01:56;;;;;;;27.23;20.70;;;24.80;85.80;;;;;;5098401;28;20055;-88
2021/08/02 01:04:24;;;;;;;23.13;20.48;;;24.80;85.70;;;;;;5098253;28;20555;-90
2021/08/02 01:06:53;;;;;;;24.35;20.40;;;24.80;85.70;;;;;;5103320;28;20281;-87
2021/08/02 01:09:22;;;;;;;25.42;20.45;;;24.80;85.70;;;;;;5116491;28;20039;-88
2021/08/02 01:11:51;;;;;;;26.77;20.35;;;24.70;86.00;;;;;;5116223;28;20067;-88
2021/08/02 01:14:20;;;;;;;21.77;19.08;;;24.70;85.90;;;;;;5097417;28;20030;-87
2021/08/02 01:16:47;;;;;;;24.15;20.52;;;24.70;86.00;;;;;;5115907;28;20043;-87
2021/08/02 01:19:15;;;;;;;24.13;19.13;;;24.70;86.10;;;;;;5115789;28;20032;-88
2021/08/02 01:21:46;;;;;;;24.05;18.65;;;24.70;86.00;;;;;;5098018;28;20032;-87
2021/08/02 01:24:14;;;;;;;21.40;19.13;;;24.80;85.90;;;;;;5115116;28;20489;-88
2021/08/02 01:26:43;;;;;;;22.83;17.73;;;24.80;85.80;;;;;;5115184;28;20035;-88
2021/08/02 01:29:54;;;;;;;23.40;19.25;;;24.80;85.70;;;;;;5115571;28;20175;-88
2021/08/02 01:32:22;;;;;;;23.45;18.80;;;24.80;85.90;;;;;;5110003;28;20043;-88
2021/08/02 01:34:53;;;;;;;25.50;18.65;;;24.80;85.90;;;;;;5115494;28;20096;-87
2021/08/02 01:37:19;;;;;;;23.48;18.75;;;24.80;85.90;;;;;;5097766;28;20084;-88
2021/08/02 01:39:52;;;;;;;26.27;18.83;;;24.70;86.00;;;;;;5096932;28;20032;-87
2021/08/02 01:42:18;;;;;;;23.58;18.98;;;24.70;86.00;;;;;;5097036;28;20084;-86
2021/08/02 01:44:43;;;;;;;19.58;17.58;;;24.70;86.00;;;;;;5114731;28;20043;-88
2021/08/02 01:47:30;;;;;;;27.05;20.20;;;24.70;86.00;;;;;;5096494;28;20053;-87
2021/08/02 01:50:20;;;;;;;23.90;19.05;;;24.70;86.10;;;;;;5096032;28;20047;-87
2021/08/02 01:53:06;;;;;;;26.00;20.38;;;24.70;86.00;;;;;;5114724;28;20035;-87
2021/08/02 01:55:33;;;;;;;22.30;18.15;;;24.70;86.10;;;;;;5114101;28;20043;-87
2021/08/02 01:58:07;;;;;;;24.30;18.35;;;24.80;85.80;;;;;;5108917;28;20408;-88
2021/08/02 02:01:12;;;;;;;22.77;18.00;;;24.70;85.70;;;;;;5046763;28;20037;-87
2021/08/02 02:03:43;;;;;;;20.48;18.27;;;24.70;85.70;;;;;;5052122;28;20057;-88
2021/08/02 02:06:14;;;;;;;20.30;17.50;;;24.70;85.90;;;;;;5060097;28;20083;-87
2021/08/02 02:09:06;;;;;;;21.80;17.25;;;24.80;85.90;;;;;;5096229;28;20039;-90
2021/08/02 02:11:41;;;;;;;22.90;17.52;;;24.70;85.80;;;;;;5096928;28;20038;-86
2021/08/02 02:14:18;;;;;;;22.58;18.30;;;24.80;85.60;;;;;;5098537;28;20420;-90
2021/08/02 02:16:48;;;;;;;24.23;18.67;;;24.80;85.50;;;;;;5076445;28;20124;-89
2021/08/02 02:19:18;;;;;;;19.50;17.05;;;24.80;85.50;;;;;;5081745;28;20031;-89
2021/08/02 02:21:45;;;;;;;22.02;17.48;;;24.80;85.50;;;;;;5100707;28;20499;-90
2021/08/02 02:24:12;;;;;;;23.73;18.58;;;24.80;85.40;;;;;;5076432;28;20484;-91
2021/08/02 02:26:42;;;;;;;19.92;17.80;;;24.80;85.50;;;;;;5088702;28;20128;-90
2021/08/02 02:29:11;;;;;;;23.05;17.55;;;24.80;85.60;;;;;;5110268;28;20491;-91
2021/08/02 02:31:41;;;;;;;22.23;16.73;;;24.80;85.60;;;;;;5095801;28;20118;-91
2021/08/02 02:34:10;;;;;;;22.90;19.65;;;24.80;85.50;;;;;;5114525;28;20035;-91
2021/08/02 02:36:38;;;;;;;23.65;19.73;;;24.80;85.70;;;;;;5113727;28;20039;-90
2021/08/02 02:39:07;;;;;;;21.42;18.00;;;24.70;85.90;;;;;;5114541;28;20032;-90
2021/08/02 02:41:35;;;;;;;20.50;17.75;;;24.70;85.90;;;;;;5096043;28;20122;-90
2021/08/02 02:44:04;;;;;;;22.42;17.40;;;24.70;85.90;;;;;;5114355;28;20126;-91
2021/08/02 02:46:31;;;;;;;22.20;17.27;;;24.70;85.80;;;;;;5113990;28;20039;-91
2021/08/02 02:49:00;;;;;;;22.08;17.80;;;24.80;85.70;;;;;;5114438;28;20447;-90
2021/08/02 02:51:29;;;;;;;20.38;16.50;;;24.80;85.30;;;;;;5115177;28;20075;-91
2021/08/02 02:53:59;;;;;;;17.90;14.90;;;24.90;85.00;;;;;;5114115;28;20035;-91
2021/08/02 02:56:27;;;;;;;17.23;15.07;;;25.00;84.50;;;;;;5095871;28;20043;-91
2021/08/02 02:58:55;;;;;;;14.20;12.70;;;25.00;84.00;;;;;;5097021;28;20391;-91
2021/08/02 03:01:27;;;;;;;18.85;12.82;;;24.90;83.00;;;;;;5095457;28;20487;-94
2021/08/02 03:03:56;;;;;;;16.23;13.68;;;25.00;82.40;;;;;;5103110;28;20051;-90
2021/08/02 03:06:27;;;;;;;16.17;13.38;;;25.10;82.10;;;;;;5099518;28;20088;-90
2021/08/02 03:08:54;;;;;;;16.00;14.05;;;25.00;82.20;;;;;;5096566;28;20035;-89
2021/08/02 03:11:22;;;;;;;16.33;14.75;;;25.00;82.00;;;;;;5115000;28;20035;-93
2021/08/02 03:13:51;;;;;;;16.05;13.98;;;25.00;82.20;;;;;;5096332;28;20392;-92
2021/08/02 03:16:19;;;;;;;15.27;13.68;;;25.00;82.50;;;;;;5114300;28;20043;-95
2021/08/02 03:18:46;;;;;;;15.93;13.15;;;25.00;82.60;;;;;;5114760;28;20047;-96
2021/08/02 03:21:14;;;;;;;15.38;12.90;;;25.00;82.80;;;;;;5097198;28;20043;-96
2021/08/02 03:23:50;;;;;;;15.43;13.82;;;25.00;82.40;;;;;;5117169;28;20170;-96
2021/08/02 03:26:21;;;;;;;16.73;12.93;;;25.10;82.00;;;;;;5116231;28;20039;-96
2021/08/02 03:28:58;;;;;;;13.80;12.35;;;25.00;81.70;;;;;;5113792;28;20035;-95
2021/08/02 03:31:38;;;;;;;15.52;12.57;;;25.00;81.70;;;;;;5114653;28;20514;-87
2021/08/02 03:34:06;;;;;;;11.70;10.60;;;25.00;81.50;;;;;;5104461;28;20036;-92
2021/08/02 03:36:33;;;;;;;13.63;12.23;;;25.00;81.50;;;;;;5113940;28;20046;-93
2021/08/02 03:39:00;;;;;;;15.63;11.77;;;25.00;81.20;;;;;;5113762;28;20088;-93
2021/08/02 03:41:27;;;;;;;12.52;11.23;;;25.00;81.20;;;;;;5113214;28;20439;-89
2021/08/02 03:43:55;;;;;;;14.52;11.65;;;25.00;81.20;;;;;;5113867;28;20114;-92
2021/08/02 03:46:21;;;;;;;14.23;12.82;;;24.90;81.00;;;;;;5114384;28;20047;-92
2021/08/02 03:48:48;;;;;;;16.65;12.93;;;24.90;81.80;;;;;;5113751;28;20032;-90
2021/08/02 03:51:14;;;;;;;12.68;11.48;;;24.90;81.30;;;;;;5113476;28;20059;-92
2021/08/02 03:53:45;;;;;;;14.18;12.68;;;24.80;81.40;;;;;;5113854;28;20070;-92
2021/08/02 03:56:14;;;;;;;13.93;12.50;;;24.80;81.70;;;;;;5113208;28;20126;-94
2021/08/02 03:58:40;;;;;;;16.00;12.70;;;24.80;81.70;;;;;;5095555;28;20074;-94
2021/08/02 04:01:07;;;;;;;14.55;12.20;;;24.80;81.60;;;;;;5113564;28;20043;-94
2021/08/02 04:03:33;;;;;;;14.32;12.25;;;24.80;81.60;;;;;;5114153;28;20533;-95
2021/08/02 04:05:59;;;;;;;13.25;11.95;;;24.90;81.40;;;;;;5114487;28;20119;-95
2021/08/02 04:08:26;;;;;;;12.30;11.00;;;24.90;81.30;;;;;;5115316;28;20039;-96
2021/08/02 04:10:53;;;;;;;13.13;9.98;;;25.00;80.90;;;;;;5114523;28;20035;-96
2021/08/02 04:13:19;;;;;;;11.35;9.88;;;25.20;79.90;;;;;;5113625;28;20510;-96
2021/08/02 04:15:46;;;;;;;11.35;9.50;;;25.30;78.50;;;;;;5114215;28;20042;-95
2021/08/02 04:18:12;;;;;;;10.02;9.02;;;25.50;78.50;;;;;;5114248;28;20038;-96
2021/08/02 04:20:40;;;;;;;9.75;8.18;;;25.70;77.50;;;;;;5095836;28;20035;-94
2021/08/02 04:23:07;;;;;;;8.63;7.70;;;25.90;77.30;;;;;;5117691;28;20036;-96
2021/08/02 04:25:33;;;;;;;11.75;8.93;;;25.90;75.60;;;;;;5113723;28;20580;-94
2021/08/02 04:27:59;;;;;;;9.55;8.52;;;26.00;75.10;;;;;;5114288;28;20067;-94
2021/08/02 04:30:24;;;;;;;11.27;8.38;;;26.10;74.60;;;;;;5095927;28;20032;-94
2021/08/02 04:32:50;;;;;;;9.40;8.40;;;26.20;74.40;;;;;;5114239;28;20055;-93
2021/08/02 04:35:16;;;;;;;9.60;7.90;;;26.20;74.20;;;;;;5114070;28;20375;-93
2021/08/02 04:37:42;;;;;;;9.52;8.07;;;26.20;74.10;;;;;;5113795;28;20112;-92
2021/08/02 04:40:08;;;;;;;9.00;7.93;;;26.10;74.20;;;;;;5112994;28;20430;-92
2021/08/02 04:42:38;;;;;;;8.93;7.85;;;26.10;74.10;;;;;;5113105;28;20059;-90
2021/08/02 04:45:06;;;;;;;9.13;8.10;;;26.00;74.10;;;;;;5113261;28;20024;-93
2021/08/02 04:47:32;;;;;;;10.20;8.57;;;26.10;74.40;;;;;;5113349;28;20078;-92
2021/08/02 04:49:58;;;;;;;9.93;8.80;;;26.20;74.20;;;;;;5113278;28;20089;-92
2021/08/02 04:52:24;;;;;;;10.13;8.73;;;26.20;74.50;;;;;;5112929;28;20044;-91
2021/08/02 04:54:50;;;;;;;12.00;10.18;;;26.20;74.60;;;;;;5112462;28;20043;-87
2021/08/02 04:57:16;;;;;;;11.25;8.88;;;26.30;75.00;;;;;;5095487;28;20510;-87
2021/08/02 04:59:42;;;;;;;11.05;9.68;;;26.40;74.40;;;;;;5115008;28;20035;-88
2021/08/02 05:02:09;;;;;;;9.85;8.85;;;26.40;74.50;;;;;;5116582;28;20038;-83
2021/08/02 05:04:35;;;;;;;9.23;8.32;;;26.50;74.60;;;;;;5115975;28;20059;-83
2021/08/02 05:07:01;;;;;;;11.90;10.15;;;26.70;74.40;;;;;;5116385;28;20047;-83
2021/08/02 05:09:27;;;;;;;9.95;8.27;;;26.90;74.70;;;;;;5116186;28;20483;-85
2021/08/02 05:11:53;;;;;;;9.27;8.15;;;27.10;74.20;;;;;;5116138;28;20031;-84
2021/08/02 05:14:19;;;;;;;11.55;9.38;;;27.10;74.10;;;;;;5115346;28;20055;-85
2021/08/02 05:16:45;;;;;;;11.00;9.65;;;27.10;74.10;;;;;;5115298;28;20403;-89
2021/08/02 05:19:12;;;;;;;10.35;8.45;;;27.10;74.50;;;;;;5115182;28;20035;-90
2021/08/02 05:21:38;;;;;;;10.88;9.77;;;27.20;74.30;;;;;;5116089;28;20035;-90
2021/08/02 05:24:05;;;;;;;11.00;9.90;;;27.30;74.20;;;;;;5116047;28;20043;-91
2021/08/02 05:26:31;;;;;;;12.50;10.85;;;27.20;74.40;;;;;;5116133;28;20044;-89
2021/08/02 05:28:58;;;;;;;11.57;10.48;;;27.10;74.60;;;;;;5119018;28;20051;-90
2021/08/02 05:31:24;;;;;;;10.85;9.35;;;27.10;75.00;;;;;;5116176;28;20035;-90
2021/08/02 05:33:50;;;;;;;10.52;9.52;;;27.10;75.10;;;;;;5116032;28;20036;-90
2021/08/02 05:36:17;;;;;;;12.10;9.80;;;27.10;74.90;;;;;;5115796;28;20054;-90
2021/08/02 05:38:42;;;;;;;13.02;10.43;;;26.90;75.20;;;;;;5115915;27;20122;-89
2021/08/02 05:41:09;;;;;;;10.63;9.63;;;26.90;75.40;;;;;;5115840;28;20499;-86
2021/08/02 05:43:35;;;;;;;10.00;9.00;;;27.00;75.30;;;;;;5115916;28;20047;-89
2021/08/02 05:46:01;;;;;;;10.57;9.48;;;27.10;75.00;;;;;;5115337;28;20031;-88
2021/08/02 05:48:26;;;;;;;10.80;9.45;;;27.10;75.00;;;;;;5115993;28;20055;-89
2021/08/02 05:50:52;;;;;;;9.73;8.73;;;27.30;74.60;;;;;;5115751;28;20035;-90
2021/08/02 05:53:18;;;;;;;9.88;8.85;;;27.50;74.00;;;;;;5114677;28;20037;-89
2021/08/02 05:55:44;;;;;;;11.60;9.02;;;27.70;73.70;;;;;;5115803;28;20399;-86
2021/08/02 05:58:11;;;;;;;12.05;9.93;;;27.70;73.10;;;;;;5097495;28;20051;-82
2021/08/02 06:00:38;;;;;;;11.15;9.65;;;27.60;73.30;;;;;;5115493;28;20067;-81
2021/08/02 06:03:04;;;;;;;11.15;8.80;;;27.70;73.30;;;;;;5115845;28;20052;-83
2021/08/02 06:05:30;;;;;;;10.00;9.00;;;27.80;73.00;;;;;;5115657;28;20100;-83
2021/08/02 06:07:56;;;;;;;11.50;8.55;;;28.10;72.50;;;;;;5115012;28;20530;-83
2021/08/02 06:10:23;;;;;;;10.63;8.35;;;28.30;71.80;;;;;;5097055;28;20463;-81
2021/08/02 06:12:49;;;;;;;11.95;8.52;;;28.40;71.60;;;;;;5114727;28;20041;-84
2021/08/02 06:15:15;;;;;;;12.15;8.18;;;28.50;71.30;;;;;;5115299;28;20035;-81
2021/08/02 06:17:42;;;;;;;9.50;8.15;;;28.50;71.20;;;;;;5114779;28;20089;-79
2021/08/02 06:20:09;;;;;;;8.70;7.85;;;28.60;70.80;;;;;;5115028;28;20031;-80
2021/08/02 06:22:35;;;;;;;11.07;9.02;;;28.70;70.60;;;;;;5114729;28;20039;-78
2021/08/02 06:25:02;;;;;;;9.63;8.10;;;28.70;70.70;;;;;;5115504;28;20039;-75
2021/08/02 06:27:30;;;;;;;10.38;8.75;;;28.70;70.50;;;;;;5114477;28;20495;-77
2021/08/02 06:30:00;;;;;;;7.93;7.22;;;28.70;70.40;;;;;;5114936;28;20040;-76
2021/08/02 06:32:27;;;;;;;8.25;7.45;;;28.90;70.30;;;;;;5114929;28;20035;-79
2021/08/02 06:34:53;;;;;;;9.25;7.45;;;28.90;69.90;;;;;;5114757;28;20043;-83
2021/08/02 06:37:20;;;;;;;10.70;8.07;;;28.90;69.80;;;;;;5114717;28;20152;-81
2021/08/02 06:39:45;;;;;;;8.85;7.95;;;28.70;69.60;;;;;;5114458;28;20563;-80
2021/08/02 06:42:14;;;;;;;9.43;8.15;;;28.60;69.50;;;;;;5114426;28;20119;-80
2021/08/02 06:44:41;;;;;;;9.57;8.07;;;28.60;69.70;;;;;;5114802;28;20039;-80
2021/08/02 06:47:07;;;;;;;10.32;8.18;;;28.50;69.80;;;;;;5114323;28;20079;-81
2021/08/02 06:49:33;;;;;;;8.68;7.60;;;28.60;70.00;;;;;;5114600;28;20144;-78
2021/08/02 06:51:59;;;;;;;12.80;8.15;;;28.50;70.10;;;;;;5114382;28;20035;-80
2021/08/02 06:54:25;;;;;;;9.52;7.82;;;28.40;70.40;;;;;;5114348;28;20067;-79
2021/08/02 06:56:51;;;;;;;9.55;7.78;;;28.30;70.50;;;;;;5095992;28;20036;-84
2021/08/02 06:59:17;;;;;;;8.23;7.47;;;28.20;70.80;;;;;;5114159;28;20496;-81
2021/08/02 07:01:43;;;;;;;8.23;7.43;;;28.20;71.10;;;;;;5114093;28;20049;-83
2021/08/02 07:04:08;;;;;;;11.15;8.40;;;28.10;71.10;;;;;;5114143;28;20066;-79
2021/08/02 07:06:34;;;;;;;9.18;7.93;;;28.10;71.50;;;;;;5113972;28;20047;-79
2021/08/02 07:09:02;;;;;;;11.35;8.70;;;28.00;71.60;;;;;;5113974;28;20055;-79
2021/08/02 07:11:28;;;;;;;12.63;8.98;;;27.90;71.90;;;;;;5113919;28;20134;-78
2021/08/02 07:13:54;;;;;;;10.23;8.40;;;27.90;72.20;;;;;;5113730;28;20084;-82
2021/08/02 07:16:21;;;;;;;15.82;9.75;;;27.90;72.30;;;;;;5113972;28;20066;-79
2021/08/02 07:18:47;;;;;;;10.25;8.98;;;27.80;72.50;;;;;;5113880;28;20039;-77
2021/08/02 07:21:13;;;;;;;12.93;9.35;;;27.70;72.70;;;;;;5114092;28;20032;-77
2021/08/02 07:23:39;;;;;;;10.07;8.85;;;27.70;73.00;;;;;;5113101;28;20031;-79
2021/08/02 07:26:06;;;;;;;10.93;7.93;;;27.70;73.10;;;;;;5113447;28;20040;-80
2021/08/02 07:28:32;;;;;;;10.48;9.38;;;27.60;73.00;;;;;;5095233;28;20023;-80
2021/08/02 07:30:58;;;;;;;14.45;8.85;;;27.60;73.10;;;;;;5113817;28;20130;-80
2021/08/02 07:33:23;;;;;;;12.50;9.27;;;27.50;73.20;;;;;;5113488;28;20496;-81
2021/08/02 07:35:49;;;;;;;9.77;8.77;;;27.50;73.40;;;;;;5113462;28;20388;-83
2021/08/02 07:38:15;;;;;;;11.50;9.13;;;27.50;73.60;;;;;;5113489;28;20035;-79
2021/08/02 07:40:41;;;;;;;11.95;9.63;;;27.40;73.70;;;;;;5113509;28;20032;-79
2021/08/02 07:43:07;;;;;;;12.23;10.27;;;27.30;74.40;;;;;;5113438;28;20073;-80
2021/08/02 07:45:33;;;;;;;12.55;9.95;;;27.20;74.80;;;;;;5113320;28;20035;-80
2021/08/02 07:47:59;;;;;;;11.10;9.75;;;27.30;75.00;;;;;;5113128;28;20044;-80
2021/08/02 07:50:25;;;;;;;13.43;9.35;;;27.20;75.00;;;;;;5113312;28;20042;-79
2021/08/02 07:52:51;;;;;;;12.70;9.73;;;27.20;75.10;;;;;;5113092;28;20031;-79
2021/08/02 07:55:17;;;;;;;15.00;10.48;;;27.20;75.50;;;;;;5113214;28;20438;-79
2021/08/02 07:57:43;;;;;;;11.50;10.30;;;27.20;76.10;;;;;;5113055;28;20449;-84
2021/08/02 08:00:11;;;;;;;14.63;10.93;;;27.20;76.30;;;;;;5113331;28;20032;-85
2021/08/02 08:02:38;;;;;;;11.88;9.82;;;27.20;77.10;;;;;;5113185;28;20090;-84
2021/08/02 08:05:05;;;;;;;12.05;10.57;;;27.10;77.50;;;;;;5112957;28;20043;-84
2021/08/02 08:07:50;;;;;;;13.13;11.77;;;27.10;77.70;;;;;;5094788;28;20169;-83
2021/08/02 08:10:19;;;;;;;12.93;11.63;;;27.10;78.70;;;;;;5113988;28;20043;-85
2021/08/02 08:12:45;;;;;;;13.45;11.23;;;27.00;79.20;;;;;;5113113;28;20130;-88
2021/08/02 08:15:12;;;;;;;16.55;13.45;;;27.00;80.20;;;;;;5113142;28;20032;-89
2021/08/02 08:17:39;;;;;;;15.27;12.32;;;27.00;80.00;;;;;;5113060;28;20039;-90
2021/08/02 08:20:07;;;;;;;14.77;12.55;;;26.90;80.60;;;;;;5113227;28;20039;-89
2021/08/02 08:22:33;;;;;;;14.10;12.63;;;26.80;80.70;;;;;;5113476;28;20024;-90
2021/08/02 08:24:59;;;;;;;17.95;12.73;;;26.80;81.00;;;;;;5095199;28;20050;-89
2021/08/02 08:27:25;;;;;;;16.88;12.80;;;26.70;81.50;;;;;;5113216;28;20047;-90
2021/08/02 08:29:51;;;;;;;15.57;13.15;;;26.70;81.60;;;;;;5113315;28;20057;-86
2021/08/02 08:32:17;;;;;;;15.07;11.80;;;26.70;81.70;;;;;;5113593;28;20050;-86
2021/08/02 08:34:43;;;;;;;16.65;13.27;;;26.70;81.70;;;;;;5113905;28;20046;-89
2021/08/02 08:37:09;;;;;;;15.60;13.98;;;26.80;81.80;;;;;;5117338;28;20036;-85
2021/08/02 08:39:35;;;;;;;16.70;13.82;;;26.70;81.80;;;;;;5116942;28;20038;-84
2021/08/02 08:42:01;;;;;;;15.38;13.07;;;26.70;82.10;;;;;;5117259;28;20035;-84
2021/08/02 08:44:28;;;;;;;14.60;12.50;;;26.60;82.60;;;;;;5116889;28;20033;-85
2021/08/02 08:46:54;;;;;;;13.98;12.27;;;26.60;81.80;;;;;;5116698;28;20044;-83
2021/08/02 08:49:20;;;;;;;17.23;13.98;;;26.60;82.10;;;;;;5116848;28;20035;-83
2021/08/02 08:51:47;;;;;;;15.57;12.23;;;26.70;82.70;;;;;;5116614;28;20056;-85
2021/08/02 08:54:15;;;;;;;18.67;14.43;;;26.80;82.90;;;;;;5116685;28;20040;-83
2021/08/02 08:56:41;;;;;;;15.27;12.48;;;26.90;83.60;;;;;;5116745;28;20050;-85
2021/08/02 08:59:14;;;;;;;15.98;12.73;;;26.90;82.80;;;;;;5116686;28;20039;-85
2021/08/02 09:01:40;;;;;;;13.40;11.80;;;27.00;82.10;;;;;;5117069;28;20064;-86
2021/08/02 09:04:07;;;;;;;16.17;12.98;;;27.10;81.80;;;;;;5116804;28;20066;-87
2021/08/02 09:06:53;;;;;;;19.98;13.05;;;27.20;81.10;;;;;;5116388;28;20039;-85
2021/08/02 09:09:23;;;;;;;14.65;11.50;;;27.20;81.20;;;;;;5116223;28;20169;-83
2021/08/02 09:12:01;;;;;;;16.58;12.88;;;27.30;81.40;;;;;;5116381;28;20043;-81
2021/08/02 09:14:27;;;;;;;13.85;11.25;;;27.40;80.60;;;;;;5116490;28;20039;-82
2021/08/02 09:16:57;;;;;;;18.40;13.77;;;27.40;80.10;;;;;;5116268;28;20039;-89
2021/08/02 09:19:23;;;;;;;16.85;12.63;;;27.40;79.90;;;;;;5116799;28;20122;-85
2021/08/02 09:21:51;;;;;;;17.02;12.52;;;27.40;79.60;;;;;;5116256;28;20131;-85
2021/08/02 09:24:30;;;;;;;14.85;12.65;;;27.40;80.00;;;;;;5116161;28;20039;-87
2021/08/02 09:26:56;;;;;;;15.05;11.57;;;27.40;80.00;;;;;;5117336;28;20132;-86
2021/08/02 09:29:33;;;;;;;17.92;14.40;;;27.40;79.90;;;;;;5117036;28;20082;-88
2021/08/02 09:32:02;;;;;;;15.10;12.27;;;27.50;79.40;;;;;;5116090;28;20122;-87
2021/08/02 09:34:28;;;;;;;13.52;11.80;;;27.50;79.30;;;;;;5116546;28;20038;-87
2021/08/02 09:36:57;;;;;;;16.20;11.70;;;27.50;78.80;;;;;;5116010;28;20036;-87
2021/08/02 09:39:30;;;;;;;13.27;11.85;;;27.50;78.80;;;;;;5110421;28;20057;-88
2021/08/02 09:42:05;;;;;;;13.57;12.18;;;27.40;78.50;;;;;;5113134;28;20071;-86
2021/08/02 09:44:31;;;;;;;18.38;13.13;;;27.40;78.50;;;;;;5112293;28;20508;-85
2021/08/02 09:46:58;;;;;;;17.55;13.88;;;27.50;78.70;;;;;;5113813;28;20416;-83
2021/08/02 09:49:25;;;;;;;16.20;12.45;;;27.50;78.70;;;;;;5114351;28;20032;-85
2021/08/02 09:51:53;;;;;;;14.70;11.50;;;27.50;78.70;;;;;;5114195;28;20045;-83
2021/08/02 09:54:27;;;;;;;13.20;11.75;;;27.50;78.40;;;;;;5100201;28;20044;-84
2021/08/02 09:56:53;;;;;;;12.55;10.35;;;27.60;78.20;;;;;;5093663;28;20448;-88
2021/08/02 09:59:20;;;;;;;13.18;9.85;;;27.50;77.40;;;;;;5093687;28;20078;-85
2021/08/02 10:01:48;;;;;;;12.90;9.27;;;27.50;76.30;;;;;;5093355;28;20032;-89
2021/08/02 10:04:15;;;;;;;21.70;9.43;;;27.60;76.40;;;;;;5093591;28;20051;-86
2021/08/02 10:06:42;;;;;;;11.13;9.10;;;27.70;76.20;;;;;;5093447;28;20047;-84
2021/08/02 10:09:10;;;;;;;10.57;9.57;;;27.70;76.10;;;;;;5093481;28;20028;-84
2021/08/02 10:11:36;;;;;;;10.80;9.38;;;27.60;75.30;;;;;;5093409;28;20089;-88
2021/08/02 10:14:02;;;;;;;14.55;10.15;;;27.60;75.00;;;;;;5093325;28;20131;-87
2021/08/02 10:16:30;;;;;;;10.48;9.38;;;27.60;74.70;;;;;;5093453;28;20556;-88
2021/08/02 10:19:07;;;;;;;10.48;8.32;;;27.60;74.50;;;;;;5107867;28;20036;-85
2021/08/02 10:21:45;;;;;;;10.43;8.52;;;27.60;73.90;;;;;;5113685;28;20097;-84
2021/08/02 10:24:13;;;;;;;10.30;7.90;;;27.60;73.60;;;;;;5113645;28;20036;-83
2021/08/02 10:26:39;;;;;;;10.50;7.55;;;27.60;73.20;;;;;;5113451;28;20058;-92
2021/08/02 10:29:07;;;;;;;8.98;7.60;;;27.60;73.00;;;;;;5112429;28;20031;-88
2021/08/02 10:31:47;;;;;;;12.00;7.57;;;27.60;72.20;;;;;;5095485;28;20040;-83
2021/08/02 10:34:18;;;;;;;7.90;6.13;;;27.70;71.50;;;;;;5112895;28;20108;-86
2021/08/02 10:37:00;;;;;;;8.45;7.07;;;27.70;71.00;;;;;;5113434;28;20038;-93
2021/08/02 10:39:28;;;;;;;6.28;5.72;;;27.70;71.00;;;;;;5095063;28;20043;-86
2021/08/02 10:42:23;;;;;;;9.07;6.40;;;27.70;70.20;;;;;;5112895;28;20407;-79
2021/08/02 10:44:54;;;;;;;7.20;6.53;;;27.80;69.80;;;;;;5099687;28;20138;-79
2021/08/02 10:47:20;;;;;;;7.90;7.00;;;27.80;69.50;;;;;;5113143;28;20039;-80
2021/08/02 10:49:51;;;;;;;8.88;7.50;;;27.80;69.60;;;;;;5113140;28;20043;-79
2021/08/02 10:52:27;;;;;;;8.60;6.90;;;27.80;70.00;;;;;;5094648;28;20387;-78
2021/08/02 10:54:53;;;;;;;9.15;7.25;;;27.90;70.10;;;;;;5112799;28;20027;-80
2021/08/02 10:57:19;;;;;;;10.57;7.70;;;27.90;70.50;;;;;;5112000;28;20035;-79
2021/08/02 10:59:45;;;;;;;12.00;8.63;;;27.90;71.10;;;;;;5112627;28;20445;-79
2021/08/02 11:02:12;;;;;;;8.48;7.63;;;27.90;71.40;;;;;;5112847;28;20044;-90
2021/08/02 11:04:39;;;;;;;8.60;7.78;;;27.90;71.70;;;;;;5112569;28;20051;-79
2021/08/02 11:07:06;;;;;;;9.57;7.78;;;27.90;72.10;;;;;;5112245;28;20457;-78
2021/08/02 11:09:37;;;;;;;8.40;7.55;;;28.00;71.90;;;;;;5112386;28;20131;-78
2021/08/02 11:12:05;;;;;;;9.68;8.00;;;28.00;71.90;;;;;;5112539;28;20038;-75
2021/08/02 11:14:31;;;;;;;11.95;7.32;;;28.00;71.90;;;;;;5112279;28;20031;-80
2021/08/02 11:16:57;;;;;;;10.45;8.07;;;28.00;71.70;;;;;;5112821;28;20120;-77
2021/08/02 11:19:28;;;;;;;10.57;8.75;;;28.00;71.90;;;;;;5112360;28;20488;-77
2021/08/02 11:22:04;;;;;;;12.40;8.27;;;28.00;72.60;;;;;;5094331;28;20075;-76
2021/08/02 11:24:32;;;;;;;8.75;7.93;;;28.10;72.50;;;;;;5113066;28;20036;-76
2021/08/02 11:27:10;;;;;;;11.63;8.27;;;28.10;72.20;;;;;;5113714;28;20112;-76
2021/08/02 11:29:36;;;;;;;11.63;8.35;;;28.10;72.10;;;;;;5113718;28;20127;-76
2021/08/02 11:32:10;;;;;;;8.57;7.75;;;28.10;72.40;;;;;;5114072;28;20046;-75
2021/08/02 11:34:42;;;;;;;9.13;8.20;;;28.10;72.10;;;;;;5113809;28;20036;-75
2021/08/02 11:37:12;;;;;;;8.82;8.00;;;28.10;72.10;;;;;;5095411;28;20514;-75
2021/08/02 11:39:40;;;;;;;8.68;7.97;;;28.10;72.10;;;;;;5113498;28;20608;-76
2021/08/02 11:42:17;;;;;;;8.80;8.02;;;28.10;72.30;;;;;;5113559;28;20039;-77
2021/08/02 11:44:54;;;;;;;9.10;7.88;;;28.00;72.40;;;;;;5113500;28;20455;-78
2021/08/02 11:47:25;;;;;;;11.85;8.05;;;28.00;72.50;;;;;;5112217;28;20450;-77
2021/08/02 11:49:52;;;;;;;12.23;8.40;;;28.00;72.40;;;;;;5095275;28;20399;-76
2021/08/02 11:52:20;;;;;;;9.93;8.15;;;28.10;72.40;;;;;;5113347;28;20028;-76
2021/08/02 11:54:57;;;;;;;10.02;7.70;;;28.00;72.40;;;;;;5113347;28;20091;-77
2021/08/02 11:57:23;;;;;;;8.88;7.28;;;28.10;72.20;;;;;;5113478;28;20506;-77
2021/08/02 11:59:59;;;;;;;10.77;7.68;;;28.10;72.00;;;;;;5113284;28;20036;-77
2021/08/02 12:02:35;;;;;;;9.38;7.40;;;28.20;72.20;;;;;;5113733;28;20468;-77
2021/08/02 12:05:06;;;;;;;10.00;7.78;;;28.20;72.30;;;;;;5113170;28;20046;-77
2021/08/02 12:07:32;;;;;;;9.05;8.25;;;28.20;72.50;;;;;;5113022;28;20399;-77
2021/08/02 12:10:18;;;;;;;8.25;7.45;;;28.20;72.40;;;;;;5118617;28;20505;-77
2021/08/02 12:13:10;;;;;;;9.27;8.48;;;28.20;72.50;;;;;;5120149;28;20051;-77
2021/08/02 12:15:36;;;;;;;10.30;8.25;;;28.20;72.30;;;;;;5120165;28;20028;-77
2021/08/02 12:18:03;;;;;;;10.30;8.32;;;28.30;72.20;;;;;;5119754;28;20134;-77
2021/08/02 12:20:36;;;;;;;10.25;7.95;;;28.20;72.30;;;;;;5120332;28;20082;-77
2021/08/02 12:23:04;;;;;;;10.68;7.97;;;28.20;72.30;;;;;;5101653;28;20031;-76
2021/08/02 12:25:48;;;;;;;10.27;8.13;;;28.20;72.30;;;;;;5120024;28;20078;-76
2021/08/02 12:28:14;;;;;;;9.77;7.68;;;28.20;72.70;;;;;;5101415;28;20040;-76
2021/08/02 12:30:42;;;;;;;8.52;7.68;;;28.10;72.60;;;;;;5119593;28;20040;-76
2021/08/02 12:33:10;;;;;;;13.02;8.82;;;28.20;72.50;;;;;;5119795;28;20039;-77
2021/08/02 12:35:36;;;;;;;8.85;7.93;;;28.10;72.40;;;;;;5119873;28;20035;-76
2021/08/02 12:38:05;;;;;;;8.95;8.05;;;28.20;72.70;;;;;;5101448;28;20032;-76
2021/08/02 12:40:32;;;;;;;10.20;7.80;;;28.20;72.50;;;;;;5119706;28;20173;-76
2021/08/02 12:42:58;;;;;;;8.20;7.40;;;28.20;72.50;;;;;;5119402;28;20049;-76